sensor_id;sensor_type;location;lat;lon;timestamp;pressure;altitude;pressure_sealevel;temperature;humidity
75933;BME280;64803;52.356;5.310;2023-02-11T00:00:30;103705.00;;;7.07;100.00
75933;BME280;64803;52.356;5.310;2023-02-11T00:02:56;103704.94;;;7.08;100.00
75933;BME280;64803;52.356;5.310;2023-02-11T00:05:22;103693.47;;;7.06;100.00
75933;BME280;64803;52.356;5.310;2023-02-11T00:07:48;103695.53;;;7.01;100.00
75933;BME280;64803;52.356;5.310;2023-02-11T00:10:14;103688.56;;;6.99;100.00
75933;BME280;64803;52.356;5.310;2023-02-11T00:12:40;103670.78;;;6.82;100.00
75933;BME280;64803;52.356;5.310;2023-02-11T00:15:08;103701.41;;;6.92;100.00
75933;BME280;64803;52.356;5.310;2023-02-11T00:17:34;103709.34;;;6.94;100.00
75933;BME280;64803;52.356;5.310;2023-02-11T00:20:00;103714.41;;;6.98;100.00
75933;BME280;64803;52.356;5.310;2023-02-11T00:22:26;103684.84;;;6.85;100.00
75933;BME280;64803;52.356;5.310;2023-02-11T00:24:52;103712.94;;;6.93;100.00
75933;BME280;64803;52.356;5.310;2023-02-11T00:27:18;103714.13;;;6.87;100.00
75933;BME280;64803;52.356;5.310;2023-02-11T00:29:44;103706.38;;;6.82;100.00
75933;BME280;64803;52.356;5.310;2023-02-11T00:32:10;103718.53;;;6.88;100.00
75933;BME280;64803;52.356;5.310;2023-02-11T00:34:36;103713.28;;;6.87;100.00
75933;BME280;64803;52.356;5.310;2023-02-11T00:37:03;103712.59;;;6.83;100.00
75933;BME280;64803;52.356;5.310;2023-02-11T00:39:29;103716.38;;;6.79;100.00
75933;BME280;64803;52.356;5.310;2023-02-11T00:41:56;103701.22;;;6.79;100.00
75933;BME280;64803;52.356;5.310;2023-02-11T00:44:23;103691.91;;;6.71;100.00
75933;BME280;64803;52.356;5.310;2023-02-11T00:46:49;103689.38;;;6.68;100.00
75933;BME280;64803;52.356;5.310;2023-02-11T00:49:15;103676.19;;;6.65;100.00
75933;BME280;64803;52.356;5.310;2023-02-11T00:51:41;103666.97;;;6.55;100.00
75933;BME280;64803;52.356;5.310;2023-02-11T00:54:07;103668.06;;;6.51;100.00
75933;BME280;64803;52.356;5.310;2023-02-11T00:56:33;103653.59;;;6.39;100.00
75933;BME280;64803;52.356;5.310;2023-02-11T00:58:59;103680.16;;;6.58;100.00
75933;BME280;64803;52.356;5.310;2023-02-11T01:01:25;103675.75;;;6.57;100.00
75933;BME280;64803;52.356;5.310;2023-02-11T01:03:51;103672.53;;;6.50;100.00
75933;BME280;64803;52.356;5.310;2023-02-11T01:06:17;103631.06;;;6.28;100.00
75933;BME280;64803;52.356;5.310;2023-02-11T01:08:44;103665.91;;;6.57;100.00
75933;BME280;64803;52.356;5.310;2023-02-11T01:11:16;103648.97;;;6.58;100.00
75933;BME280;64803;52.356;5.310;2023-02-11T01:13:44;103650.94;;;6.55;100.00
75933;BME280;64803;52.356;5.310;2023-02-11T01:16:11;103667.91;;;6.54;100.00
75933;BME280;64803;52.356;5.310;2023-02-11T01:18:37;103649.28;;;6.37;100.00
75933;BME280;64803;52.356;5.310;2023-02-11T01:21:04;103685.00;;;6.67;100.00
75933;BME280;64803;52.356;5.310;2023-02-11T01:23:30;103693.94;;;6.66;100.00
75933;BME280;64803;52.356;5.310;2023-02-11T01:25:56;103701.53;;;6.73;100.00
75933;BME280;64803;52.356;5.310;2023-02-11T01:28:24;103712.72;;;6.80;100.00
75933;BME280;64803;52.356;5.310;2023-02-11T01:30:52;103700.16;;;6.82;100.00
75933;BME280;64803;52.356;5.310;2023-02-11T01:33:19;103694.72;;;6.83;100.00
75933;BME280;64803;52.356;5.310;2023-02-11T01:35:45;103685.19;;;6.79;100.00
75933;BME280;64803;52.356;5.310;2023-02-11T01:38:14;103687.94;;;6.78;100.00
75933;BME280;64803;52.356;5.310;2023-02-11T01:40:52;103693.19;;;6.79;100.00
75933;BME280;64803;52.356;5.310;2023-02-11T01:43:19;103703.97;;;6.78;100.00
75933;BME280;64803;52.356;5.310;2023-02-11T01:48:14;103659.88;;;6.54;100.00
75933;BME280;64803;52.356;5.310;2023-02-11T01:50:44;103698.88;;;6.73;100.00
75933;BME280;64803;52.356;5.310;2023-02-11T01:53:13;103706.78;;;6.75;100.00
75933;BME280;64803;52.356;5.310;2023-02-11T01:55:58;103653.94;;;6.49;100.00
75933;BME280;64803;52.356;5.310;2023-02-11T01:58:44;103697.25;;;6.71;100.00
75933;BME280;64803;52.356;5.310;2023-02-11T02:01:17;103698.00;;;6.73;100.00
75933;BME280;64803;52.356;5.310;2023-02-11T02:03:45;103662.72;;;6.51;100.00
75933;BME280;64803;52.356;5.310;2023-02-11T02:06:25;103683.19;;;6.67;100.00
75933;BME280;64803;52.356;5.310;2023-02-11T02:08:56;103682.63;;;6.61;100.00
75933;BME280;64803;52.356;5.310;2023-02-11T02:11:24;103678.56;;;6.54;100.00
75933;BME280;64803;52.356;5.310;2023-02-11T02:13:51;103605.13;;;6.14;100.00
75933;BME280;64803;52.356;5.310;2023-02-11T02:16:20;103682.38;;;6.50;100.00
75933;BME280;64803;52.356;5.310;2023-02-11T02:18:55;103681.59;;;6.48;100.00
75933;BME280;64803;52.356;5.310;2023-02-11T02:35:36;103668.53;;;6.26;100.00
75933;BME280;64803;52.356;5.310;2023-02-11T02:38:26;103672.38;;;6.21;100.00
75933;BME280;64803;52.356;5.310;2023-02-11T02:43:28;103677.72;;;6.04;100.00
75933;BME280;64803;52.356;5.310;2023-02-11T02:45:55;103684.09;;;6.01;100.00
75933;BME280;64803;52.356;5.310;2023-02-11T02:48:33;103675.69;;;5.92;100.00
75933;BME280;64803;52.356;5.310;2023-02-11T02:56:47;103672.41;;;5.87;100.00
75933;BME280;64803;52.356;5.310;2023-02-11T03:00:03;103662.97;;;5.80;100.00
75933;BME280;64803;52.356;5.310;2023-02-11T03:02:15;103659.84;;;5.71;100.00
75933;BME280;64803;52.356;5.310;2023-02-11T03:10:26;103583.06;;;5.27;100.00
75933;BME280;64803;52.356;5.310;2023-02-11T03:12:53;103588.16;;;5.31;100.00
75933;BME280;64803;52.356;5.310;2023-02-11T03:15:21;103650.00;;;5.72;100.00
75933;BME280;64803;52.356;5.310;2023-02-11T03:17:50;103653.16;;;5.80;100.00
75933;BME280;64803;52.356;5.310;2023-02-11T03:20:21;103649.97;;;5.73;100.00
75933;BME280;64803;52.356;5.310;2023-02-11T03:22:53;103645.47;;;5.74;100.00
75933;BME280;64803;52.356;5.310;2023-02-11T03:25:25;103641.31;;;5.68;100.00
75933;BME280;64803;52.356;5.310;2023-02-11T03:28:00;103629.94;;;5.65;100.00
75933;BME280;64803;52.356;5.310;2023-02-11T03:30:38;103625.47;;;5.65;100.00
75933;BME280;64803;52.356;5.310;2023-02-11T03:33:32;103625.03;;;5.57;100.00
75933;BME280;64803;52.356;5.310;2023-02-11T03:35:59;103618.13;;;5.53;100.00
75933;BME280;64803;52.356;5.310;2023-02-11T03:38:32;103620.63;;;5.56;100.00
75933;BME280;64803;52.356;5.310;2023-02-11T03:41:00;103626.03;;;5.55;100.00
75933;BME280;64803;52.356;5.310;2023-02-11T03:43:48;103631.16;;;5.59;100.00
75933;BME280;64803;52.356;5.310;2023-02-11T03:46:18;103630.34;;;5.57;100.00
75933;BME280;64803;52.356;5.310;2023-02-11T03:48:55;103630.03;;;5.63;100.00
75933;BME280;64803;52.356;5.310;2023-02-11T03:51:24;103637.25;;;5.79;100.00
75933;BME280;64803;52.356;5.310;2023-02-11T03:53:54;103604.25;;;5.64;100.00
75933;BME280;64803;52.356;5.310;2023-02-11T03:56:25;103616.84;;;5.78;100.00
75933;BME280;64803;52.356;5.310;2023-02-11T03:58:53;103646.44;;;5.90;100.00
75933;BME280;64803;52.356;5.310;2023-02-11T04:01:20;103644.66;;;5.91;100.00
75933;BME280;64803;52.356;5.310;2023-02-11T04:03:46;103639.16;;;5.94;100.00
75933;BME280;64803;52.356;5.310;2023-02-11T04:06:12;103630.38;;;5.92;100.00
75933;BME280;64803;52.356;5.310;2023-02-11T04:08:38;103628.47;;;5.94;100.00
75933;BME280;64803;52.356;5.310;2023-02-11T04:11:04;103628.47;;;5.94;100.00
75933;BME280;64803;52.356;5.310;2023-02-11T04:13:30;103625.03;;;5.92;100.00
75933;BME280;64803;52.356;5.310;2023-02-11T04:15:56;103634.78;;;5.93;100.00
75933;BME280;64803;52.356;5.310;2023-02-11T04:18:22;103640.09;;;5.93;100.00
75933;BME280;64803;52.356;5.310;2023-02-11T04:20:49;103641.03;;;5.92;100.00
75933;BME280;64803;52.356;5.310;2023-02-11T04:23:15;103645.56;;;5.90;100.00
75933;BME280;64803;52.356;5.310;2023-02-11T04:25:41;103646.38;;;5.92;100.00
75933;BME280;64803;52.356;5.310;2023-02-11T04:28:08;103644.75;;;5.89;100.00
75933;BME280;64803;52.356;5.310;2023-02-11T04:30:34;103633.28;;;5.87;100.00
75933;BME280;64803;52.356;5.310;2023-02-11T04:33:00;103646.69;;;5.86;100.00
75933;BME280;64803;52.356;5.310;2023-02-11T04:35:26;103653.75;;;5.87;100.00
75933;BME280;64803;52.356;5.310;2023-02-11T04:37:52;103656.25;;;5.90;100.00
75933;BME280;64803;52.356;5.310;2023-02-11T04:40:18;103651.69;;;5.92;100.00
75933;BME280;64803;52.356;5.310;2023-02-11T04:42:44;103661.44;;;5.93;100.00
75933;BME280;64803;52.356;5.310;2023-02-11T04:45:10;103648.09;;;5.93;100.00
75933;BME280;64803;52.356;5.310;2023-02-11T04:47:36;103648.09;;;5.93;100.00
75933;BME280;64803;52.356;5.310;2023-02-11T04:50:03;103652.41;;;5.95;100.00
75933;BME280;64803;52.356;5.310;2023-02-11T04:52:29;103652.47;;;5.94;100.00
75933;BME280;64803;52.356;5.310;2023-02-11T04:54:55;103664.66;;;5.99;100.00
75933;BME280;64803;52.356;5.310;2023-02-11T04:57:21;103630.19;;;5.78;100.00
75933;BME280;64803;52.356;5.310;2023-02-11T04:59:47;103661.03;;;6.00;100.00
75933;BME280;64803;52.356;5.310;2023-02-11T05:02:13;103658.59;;;5.96;100.00
75933;BME280;64803;52.356;5.310;2023-02-11T05:04:39;103660.31;;;5.97;100.00
75933;BME280;64803;52.356;5.310;2023-02-11T05:07:05;103657.56;;;5.98;100.00
75933;BME280;64803;52.356;5.310;2023-02-11T05:09:31;103663.00;;;5.97;100.00
75933;BME280;64803;52.356;5.310;2023-02-11T05:11:57;103653.09;;;5.99;100.00
75933;BME280;64803;52.356;5.310;2023-02-11T05:14:23;103658.28;;;6.02;100.00
75933;BME280;64803;52.356;5.310;2023-02-11T05:16:49;103649.50;;;6.00;100.00
75933;BME280;64803;52.356;5.310;2023-02-11T05:19:15;103652.19;;;6.00;100.00
75933;BME280;64803;52.356;5.310;2023-02-11T05:21:41;103647.94;;;5.96;100.00
75933;BME280;64803;52.356;5.310;2023-02-11T05:24:07;103663.78;;;5.99;100.00
75933;BME280;64803;52.356;5.310;2023-02-11T05:26:34;103663.69;;;6.00;100.00
75933;BME280;64803;52.356;5.310;2023-02-11T05:29:00;103656.38;;;6.04;100.00
75933;BME280;64803;52.356;5.310;2023-02-11T05:31:26;103635.69;;;5.92;100.00
75933;BME280;64803;52.356;5.310;2023-02-11T05:33:52;103652.94;;;6.02;100.00
75933;BME280;64803;52.356;5.310;2023-02-11T05:36:18;103652.19;;;6.00;100.00
75933;BME280;64803;52.356;5.310;2023-02-11T05:38:44;103649.34;;;6.03;100.00
75933;BME280;64803;52.356;5.310;2023-02-11T05:41:10;103654.69;;;6.03;100.00
75933;BME280;64803;52.356;5.310;2023-02-11T05:43:36;103657.34;;;6.03;100.00
75933;BME280;64803;52.356;5.310;2023-02-11T05:46:03;103641.03;;;5.92;100.00
75933;BME280;64803;52.356;5.310;2023-02-11T05:48:30;103648.56;;;6.01;100.00
75933;BME280;64803;52.356;5.310;2023-02-11T05:50:56;103609.88;;;5.75;100.00
75933;BME280;64803;52.356;5.310;2023-02-11T05:53:22;103649.44;;;6.01;100.00
75933;BME280;64803;52.356;5.310;2023-02-11T05:55:48;103654.75;;;6.01;100.00
75933;BME280;64803;52.356;5.310;2023-02-11T05:58:14;103664.47;;;6.02;100.00
75933;BME280;64803;52.356;5.310;2023-02-11T06:00:40;103660.88;;;6.03;100.00
75933;BME280;64803;52.356;5.310;2023-02-11T06:03:06;103676.72;;;6.06;100.00
75933;BME280;64803;52.356;5.310;2023-02-11T06:05:32;103672.22;;;6.07;100.00
75933;BME280;64803;52.356;5.310;2023-02-11T06:07:58;103671.22;;;6.09;100.00
75933;BME280;64803;52.356;5.310;2023-02-11T06:10:25;103674.50;;;6.14;100.00
75933;BME280;64803;52.356;5.310;2023-02-11T06:12:51;103634.78;;;5.93;100.00
75933;BME280;64803;52.356;5.310;2023-02-11T06:15:17;103669.16;;;6.14;100.00
75933;BME280;64803;52.356;5.310;2023-02-11T06:17:43;103664.63;;;6.16;100.00
75933;BME280;64803;52.356;5.310;2023-02-11T06:20:09;103662.81;;;6.17;100.00
75933;BME280;64803;52.356;5.310;2023-02-11T06:22:36;103669.78;;;6.19;100.00
75933;BME280;64803;52.356;5.310;2023-02-11T06:25:02;103669.78;;;6.19;100.00
75933;BME280;64803;52.356;5.310;2023-02-11T06:27:28;103668.00;;;6.20;100.00
75933;BME280;64803;52.356;5.310;2023-02-11T06:29:54;103665.56;;;6.15;100.00
75933;BME280;64803;52.356;5.310;2023-02-11T06:32:20;103665.00;;;6.09;100.00
75933;BME280;64803;52.356;5.310;2023-02-11T06:34:46;103659.84;;;6.06;100.00
75933;BME280;64803;52.356;5.310;2023-02-11T06:37:12;103658.44;;;5.99;100.00
75933;BME280;64803;52.356;5.310;2023-02-11T06:39:38;103661.72;;;6.04;100.00
75933;BME280;64803;52.356;5.310;2023-02-11T06:42:04;103658.59;;;5.96;100.00
75933;BME280;64803;52.356;5.310;2023-02-11T06:44:31;103661.81;;;6.02;100.00
75933;BME280;64803;52.356;5.310;2023-02-11T06:46:56;103658.44;;;5.99;100.00
75933;BME280;64803;52.356;5.310;2023-02-11T06:49:22;103660.50;;;5.94;100.00
75933;BME280;64803;52.356;5.310;2023-02-11T06:51:48;103664.88;;;5.95;100.00
75933;BME280;64803;52.356;5.310;2023-02-11T06:54:14;103660.88;;;6.03;100.00
75933;BME280;64803;52.356;5.310;2023-02-11T06:56:41;103663.78;;;5.99;100.00
75933;BME280;64803;52.356;5.310;2023-02-11T06:59:16;103669.09;;;5.99;100.00
75933;BME280;64803;52.356;5.310;2023-02-11T07:01:42;103670.84;;;6.00;100.00
75933;BME280;64803;52.356;5.310;2023-02-11T07:04:08;103663.06;;;5.95;100.00
75933;BME280;64803;52.356;5.310;2023-02-11T07:06:34;103637.91;;;5.84;100.00
75933;BME280;64803;52.356;5.310;2023-02-11T07:09:03;103674.13;;;6.05;100.00
75933;BME280;64803;52.356;5.310;2023-02-11T07:11:30;103674.13;;;6.05;100.00
75933;BME280;64803;52.356;5.310;2023-02-11T07:14:05;103678.78;;;6.01;100.00
75933;BME280;64803;52.356;5.310;2023-02-11T07:16:33;103690.84;;;6.08;100.00
75933;BME280;64803;52.356;5.310;2023-02-11T07:19:00;103683.06;;;6.04;100.00
75933;BME280;64803;52.356;5.310;2023-02-11T07:21:26;103683.59;;;6.10;100.00
75933;BME280;64803;52.356;5.310;2023-02-11T07:23:52;103649.41;;;5.84;100.00
75933;BME280;64803;52.356;5.310;2023-02-11T07:26:20;103658.00;;;5.91;100.00
75933;BME280;64803;52.356;5.310;2023-02-11T07:28:48;103697.91;;;6.09;100.00
75933;BME280;64803;52.356;5.310;2023-02-11T07:31:21;103701.25;;;6.13;100.00
75933;BME280;64803;52.356;5.310;2023-02-11T07:33:47;103702.13;;;6.13;100.00
75933;BME280;64803;52.356;5.310;2023-02-11T07:36:15;103703.16;;;6.11;100.00
75933;BME280;64803;52.356;5.310;2023-02-11T07:38:41;103703.94;;;6.13;100.00
75933;BME280;64803;52.356;5.310;2023-02-11T07:41:09;103703.06;;;6.12;100.00
75933;BME280;64803;52.356;5.310;2023-02-11T07:43:36;103703.63;;;6.19;100.00
75933;BME280;64803;52.356;5.310;2023-02-11T07:46:03;103707.22;;;6.18;100.00
75933;BME280;64803;52.356;5.310;2023-02-11T07:48:29;103708.09;;;6.18;100.00
75933;BME280;64803;52.356;5.310;2023-02-11T07:51:04;103713.97;;;6.25;100.00
75933;BME280;64803;52.356;5.310;2023-02-11T07:53:30;103708.47;;;6.28;100.00
75933;BME280;64803;52.356;5.310;2023-02-11T07:55:56;103708.16;;;6.34;100.00
75933;BME280;64803;52.356;5.310;2023-02-11T07:58:22;103703.59;;;6.36;100.00
75933;BME280;64803;52.356;5.310;2023-02-11T08:00:48;103711.53;;;6.37;100.00
75933;BME280;64803;52.356;5.310;2023-02-11T08:03:14;103714.56;;;6.47;100.00
75933;BME280;64803;52.356;5.310;2023-02-11T08:05:40;103706.22;;;6.53;100.00
75933;BME280;64803;52.356;5.310;2023-02-11T08:08:06;103709.69;;;6.55;100.00
75933;BME280;64803;52.356;5.310;2023-02-11T08:10:32;103686.75;;;6.51;100.00
75933;BME280;64803;52.356;5.310;2023-02-11T08:12:58;103706.44;;;6.65;100.00
75933;BME280;64803;52.356;5.310;2023-02-11T08:15:24;103712.56;;;6.67;100.00
75933;BME280;64803;52.356;5.310;2023-02-11T08:17:50;103709.53;;;6.73;100.00
75933;BME280;64803;52.356;5.310;2023-02-11T08:20:16;103711.03;;;6.79;100.00
75933;BME280;64803;52.356;5.310;2023-02-11T08:22:42;103719.66;;;6.84;100.00
75933;BME280;64803;52.356;5.310;2023-02-11T08:25:08;103722.22;;;6.85;100.00
75933;BME280;64803;52.356;5.310;2023-02-11T08:27:34;103726.56;;;6.88;100.00
75933;BME280;64803;52.356;5.310;2023-02-11T08:30:00;103721.81;;;6.93;100.00
75933;BME280;64803;52.356;5.310;2023-02-11T08:32:26;103718.66;;;7.02;100.00
75933;BME280;64803;52.356;5.310;2023-02-11T08:34:52;103722.94;;;7.05;100.00
75933;BME280;64803;52.356;5.310;2023-02-11T08:37:18;103727.16;;;7.09;100.00
75933;BME280;64803;52.356;5.310;2023-02-11T08:39:44;103734.31;;;7.08;100.00
75933;BME280;64803;52.356;5.310;2023-02-11T08:42:12;103740.25;;;7.13;100.00
75933;BME280;64803;52.356;5.310;2023-02-11T08:44:40;103736.47;;;7.17;100.00
75933;BME280;64803;52.356;5.310;2023-02-11T08:47:06;103744.31;;;7.20;100.00
75933;BME280;64803;52.356;5.310;2023-02-11T08:49:32;103740.03;;;7.18;100.00
75933;BME280;64803;52.356;5.310;2023-02-11T08:51:59;103730.13;;;7.20;100.00
75933;BME280;64803;52.356;5.310;2023-02-11T08:54:31;103729.06;;;7.22;100.00
75933;BME280;64803;52.356;5.310;2023-02-11T08:56:57;103698.81;;;7.06;100.00
75933;BME280;64803;52.356;5.310;2023-02-11T08:59:23;103738.03;;;7.37;100.00
75933;BME280;64803;52.356;5.310;2023-02-11T09:01:49;103735.28;;;7.38;100.00
75933;BME280;64803;52.356;5.310;2023-02-11T09:04:15;103742.97;;;7.44;100.00
75933;BME280;64803;52.356;5.310;2023-02-11T09:06:42;103743.72;;;7.46;100.00
75933;BME280;64803;52.356;5.310;2023-02-11T09:09:11;103745.66;;;7.44;100.00
75933;BME280;64803;52.356;5.310;2023-02-11T09:11:38;103758.47;;;7.53;100.00
75933;BME280;64803;52.356;5.310;2023-02-11T09:14:06;103755.72;;;7.55;100.00
75933;BME280;64803;52.356;5.310;2023-02-11T09:16:34;103753.91;;;7.55;100.00
75933;BME280;64803;52.356;5.310;2023-02-11T09:19:03;103764.25;;;7.61;100.00
75933;BME280;64803;52.356;5.310;2023-02-11T09:21:29;103762.28;;;7.65;100.00
75933;BME280;64803;52.356;5.310;2023-02-11T09:23:56;103765.97;;;7.62;100.00
75933;BME280;64803;52.356;5.310;2023-02-11T09:26:33;103765.88;;;7.64;100.00
75933;BME280;64803;52.356;5.310;2023-02-11T09:28:59;103771.91;;;7.67;100.00
75933;BME280;64803;52.356;5.310;2023-02-11T09:31:27;103770.19;;;7.66;100.00
75933;BME280;64803;52.356;5.310;2023-02-11T09:33:56;103771.75;;;7.70;100.00
75933;BME280;64803;52.356;5.310;2023-02-11T09:36:25;103783.28;;;7.71;100.00
75933;BME280;64803;52.356;5.310;2023-02-11T09:38:54;103770.88;;;7.70;100.00
75933;BME280;64803;52.356;5.310;2023-02-11T09:43:57;103782.78;;;7.80;100.00
75933;BME280;64803;52.356;5.310;2023-02-11T09:46:24;103791.75;;;7.79;100.00
75933;BME280;64803;52.356;5.310;2023-02-11T09:48:52;103790.72;;;7.81;100.00
75933;BME280;64803;52.356;5.310;2023-02-11T09:51:28;103800.81;;;7.76;100.00
75933;BME280;64803;52.356;5.310;2023-02-11T09:54:03;103814.63;;;7.84;100.00
75933;BME280;64803;52.356;5.310;2023-02-11T09:56:29;103808.31;;;7.85;100.00
75933;BME280;64803;52.356;5.310;2023-02-11T09:58:55;103804.16;;;7.95;100.00
75933;BME280;64803;52.356;5.310;2023-02-11T10:01:48;103823.13;;;8.07;100.00
75933;BME280;64803;52.356;5.310;2023-02-11T10:04:47;103825.00;;;8.20;100.00
75933;BME280;64803;52.356;5.310;2023-02-11T10:07:42;103818.84;;;8.34;100.00
75933;BME280;64803;52.356;5.310;2023-02-11T10:18:35;103835.59;;;8.67;100.00
75933;BME280;64803;52.356;5.310;2023-02-11T10:21:31;103833.69;;;8.69;100.00
75933;BME280;64803;52.356;5.310;2023-02-11T10:24:04;103837.13;;;8.71;100.00
75933;BME280;64803;52.356;5.310;2023-02-11T10:26:36;103840.38;;;8.76;100.00
75933;BME280;64803;52.356;5.310;2023-02-11T10:29:23;103850.19;;;8.77;100.00
75933;BME280;64803;52.356;5.310;2023-02-11T10:31:52;103848.22;;;8.79;100.00
75933;BME280;64803;52.356;5.310;2023-02-11T10:34:18;103846.81;;;8.73;100.00
75933;BME280;64803;52.356;5.310;2023-02-11T10:36:44;103844.88;;;8.75;100.00
75933;BME280;64803;52.356;5.310;2023-02-11T10:41:44;103842.88;;;8.79;100.00
75933;BME280;64803;52.356;5.310;2023-02-11T10:44:22;103858.03;;;8.94;100.00
75933;BME280;64803;52.356;5.310;2023-02-11T10:46:49;103854.69;;;9.04;100.00
75933;BME280;64803;52.356;5.310;2023-02-11T10:49:36;103839.28;;;9.22;100.00
75933;BME280;64803;52.356;5.310;2023-02-11T10:52:20;103841.47;;;9.30;100.00
75933;BME280;64803;52.356;5.310;2023-02-11T10:57:33;103853.41;;;9.52;100.00
75933;BME280;64803;52.356;5.310;2023-02-11T11:00:03;103852.28;;;9.42;100.00
75933;BME280;64803;52.356;5.310;2023-02-11T11:02:32;103851.41;;;9.42;100.00
75933;BME280;64803;52.356;5.310;2023-02-11T11:05:02;103859.78;;;9.37;100.00
75933;BME280;64803;52.356;5.310;2023-02-11T11:07:32;103859.38;;;9.43;100.00
75933;BME280;64803;52.356;5.310;2023-02-11T11:12:56;103856.06;;;9.80;100.00
75933;BME280;64803;52.356;5.310;2023-02-11T11:15:28;103809.56;;;9.53;100.00
75933;BME280;64803;52.356;5.310;2023-02-11T11:18:14;103871.81;;;9.99;100.00
75933;BME280;64803;52.356;5.310;2023-02-11T11:23:21;103879.63;;;9.89;100.00
75933;BME280;64803;52.356;5.310;2023-02-11T11:26:05;103881.72;;;9.98;100.00
75933;BME280;64803;52.356;5.310;2023-02-11T11:28:41;103881.88;;;10.09;100.00
75933;BME280;64803;52.356;5.310;2023-02-11T11:31:17;103886.41;;;10.09;100.00
75933;BME280;64803;52.356;5.310;2023-02-11T11:33:45;103861.84;;;9.74;100.00
75933;BME280;64803;52.356;5.310;2023-02-11T11:36:13;103890.19;;;9.78;100.00
75933;BME280;64803;52.356;5.310;2023-02-11T11:39:02;103897.47;;;9.76;100.00
75933;BME280;64803;52.356;5.310;2023-02-11T11:41:33;103894.59;;;9.79;100.00
75933;BME280;64803;52.356;5.310;2023-02-11T11:46:43;103892.66;;;9.95;100.00
75933;BME280;64803;52.356;5.310;2023-02-11T11:49:20;103895.13;;;9.98;100.00
75933;BME280;64803;52.356;5.310;2023-02-11T11:54:45;103879.97;;;10.11;100.00
75933;BME280;64803;52.356;5.310;2023-02-11T11:57:17;103877.56;;;10.07;100.00
75933;BME280;64803;52.356;5.310;2023-02-11T11:59:46;103881.50;;;10.15;100.00
75933;BME280;64803;52.356;5.310;2023-02-11T12:24:00;103867.19;;;10.42;100.00
75933;BME280;64803;52.356;5.310;2023-02-11T12:26:36;103872.38;;;10.57;100.00
75933;BME280;64803;52.356;5.310;2023-02-11T12:29:13;103878.38;;;10.48;100.00
75933;BME280;64803;52.356;5.310;2023-02-11T12:32:08;103869.31;;;10.37;100.00
75933;BME280;64803;52.356;5.310;2023-02-11T12:35:12;103868.56;;;10.35;100.00
75933;BME280;64803;52.356;5.310;2023-02-11T12:40:44;103875.50;;;10.51;100.00
75933;BME280;64803;52.356;5.310;2023-02-11T12:46:20;103883.34;;;10.54;100.00
75933;BME280;64803;52.356;5.310;2023-02-11T12:54:30;103875.41;;;10.53;100.00
75933;BME280;64803;52.356;5.310;2023-02-11T12:57:02;103879.28;;;10.61;100.00
75933;BME280;64803;52.356;5.310;2023-02-11T12:59:51;103873.38;;;10.69;100.00
75933;BME280;64803;52.356;5.310;2023-02-11T13:08:15;103864.88;;;10.62;100.00
75933;BME280;64803;52.356;5.310;2023-02-11T13:10:46;103853.72;;;10.68;100.00
75933;BME280;64803;52.356;5.310;2023-02-11T13:13:30;103853.72;;;10.81;100.00
75933;BME280;64803;52.356;5.310;2023-02-11T13:16:02;103862.75;;;10.80;100.00
75933;BME280;64803;52.356;5.310;2023-02-11T13:35:32;103860.56;;;10.72;100.00
75933;BME280;64803;52.356;5.310;2023-02-11T13:38:04;103853.59;;;10.70;100.00
75933;BME280;64803;52.356;5.310;2023-02-11T13:43:01;103863.19;;;10.74;100.00
75933;BME280;64803;52.356;5.310;2023-02-11T13:45:47;103842.31;;;10.65;100.00
75933;BME280;64803;52.356;5.310;2023-02-11T13:48:24;103835.75;;;10.56;100.00
75933;BME280;64803;52.356;5.310;2023-02-11T13:50:54;103855.31;;;10.71;100.00
75933;BME280;64803;52.356;5.310;2023-02-11T13:53:21;103857.13;;;10.58;100.00
75933;BME280;64803;52.356;5.310;2023-02-11T13:56:07;103857.25;;;10.56;100.00
75933;BME280;64803;52.356;5.310;2023-02-11T13:58:35;103863.28;;;10.60;100.00
75933;BME280;64803;52.356;5.310;2023-02-11T14:01:05;103858.53;;;10.63;100.00
75933;BME280;64803;52.356;5.310;2023-02-11T14:03:36;103853.56;;;10.57;100.00
75933;BME280;64803;52.356;5.310;2023-02-11T14:06:26;103865.09;;;10.59;100.00
75933;BME280;64803;52.356;5.310;2023-02-11T14:09:34;103851.97;;;10.55;100.00
75933;BME280;64803;52.356;5.310;2023-02-11T14:12:24;103862.06;;;10.64;100.00
75933;BME280;64803;52.356;5.310;2023-02-11T14:17:37;103872.63;;;10.67;100.00
75933;BME280;64803;52.356;5.310;2023-02-11T14:20:33;103878.41;;;10.61;100.00
75933;BME280;64803;52.356;5.310;2023-02-11T14:23:00;103869.38;;;10.62;100.00
75933;BME280;64803;52.356;5.310;2023-02-11T14:25:26;103841.84;;;10.46;100.00
75933;BME280;64803;52.356;5.310;2023-02-11T14:28:02;103863.81;;;10.65;100.00
75933;BME280;64803;52.356;5.310;2023-02-11T14:33:59;103870.78;;;10.55;99.50
75933;BME280;64803;52.356;5.310;2023-02-11T14:36:38;103875.41;;;10.53;100.00
75933;BME280;64803;52.356;5.310;2023-02-11T14:41:43;103869.28;;;10.63;100.00
75933;BME280;64803;52.356;5.310;2023-02-11T14:44:22;103868.22;;;10.66;99.76
75933;BME280;64803;52.356;5.310;2023-02-11T14:46:50;103875.72;;;10.61;100.00
75933;BME280;64803;52.356;5.310;2023-02-11T14:51:47;103876.72;;;10.60;100.00
75933;BME280;64803;52.356;5.310;2023-02-11T14:54:16;103878.84;;;10.67;100.00
75933;BME280;64803;52.356;5.310;2023-02-11T14:56:44;103879.47;;;10.46;100.00
75933;BME280;64803;52.356;5.310;2023-02-11T14:59:16;103881.16;;;10.47;100.00
75933;BME280;64803;52.356;5.310;2023-02-11T15:01:45;103885.88;;;10.43;100.00
75933;BME280;64803;52.356;5.310;2023-02-11T15:04:28;103882.22;;;10.32;100.00
75933;BME280;64803;52.356;5.310;2023-02-11T15:06:55;103881.66;;;10.27;100.00
75933;BME280;64803;52.356;5.310;2023-02-11T15:09:44;103882.59;;;10.26;100.00